Time;durP1;ratioP1;P1;durP2;ratioP2;P2;SDS_P1;SDS_P2;PMS_P1;PMS_P2;Temp;Humidity;BMP_temperature;BMP_pressure;BME280_temperature;BME280_humidity;BME280_pressure;Samples;Min_cycle;Max_cycle;Signal;HPM_P1;HPM_P2
2022/01/06 00:01:18;;;;;;;8.85;3.08;;;2.30;99.90;;;;;;5010533;28;20026;-67
2022/01/06 00:03:45;;;;;;;7.35;3.63;;;2.30;99.90;;;;;;5011484;28;20026;-67
2022/01/06 00:06:11;;;;;;;10.98;3.25;;;2.30;99.90;;;;;;5011198;28;20453;-67
2022/01/06 00:08:38;;;;;;;6.85;3.17;;;2.30;99.90;;;;;;5010607;28;20118;-68
2022/01/06 00:11:09;;;;;;;7.57;3.40;;;2.30;99.90;;;;;;5011008;28;20117;-67
2022/01/06 00:14:00;;;;;;;10.98;3.10;;;2.30;99.90;;;;;;5025660;28;20026;-67
2022/01/06 00:16:35;;;;;;;10.35;3.38;;;2.30;99.90;;;;;;4992165;28;20037;-67
2022/01/06 00:24:16;;;;;;;12.48;3.33;;;2.40;99.90;;;;;;5002887;28;20036;-67
2022/01/06 00:26:45;;;;;;;6.65;3.22;;;2.40;99.90;;;;;;5009930;28;20422;-68
2022/01/06 00:29:11;;;;;;;11.73;3.33;;;2.40;99.90;;;;;;5027734;28;20076;-67
2022/01/06 00:31:37;;;;;;;7.80;3.20;;;2.30;99.90;;;;;;5010947;28;20033;-66
2022/01/06 00:34:05;;;;;;;9.63;2.85;;;2.30;99.90;;;;;;5010995;28;20037;-67
2022/01/06 00:36:31;;;;;;;6.40;2.90;;;2.30;99.90;;;;;;5010332;28;20022;-67
2022/01/06 00:38:57;;;;;;;9.57;3.47;;;2.30;99.90;;;;;;5009842;28;20104;-68
2022/01/06 00:41:23;;;;;;;8.77;3.28;;;2.30;99.90;;;;;;5009721;28;20030;-68
2022/01/06 00:43:48;;;;;;;7.18;3.00;;;2.30;99.90;;;;;;5010163;28;20041;-67
2022/01/06 00:46:14;;;;;;;10.35;3.28;;;2.30;99.90;;;;;;5010581;28;20030;-67
2022/01/06 00:48:40;;;;;;;6.10;3.25;;;2.30;99.90;;;;;;5010593;28;20034;-68
2022/01/06 00:51:08;;;;;;;7.07;3.00;;;2.30;99.90;;;;;;5010388;28;20486;-68
2022/01/06 00:53:34;;;;;;;11.93;3.50;;;2.30;99.90;;;;;;5009855;28;20480;-69
2022/01/06 00:56:00;;;;;;;9.95;3.65;;;2.30;99.90;;;;;;5009879;28;20022;-68
2022/01/06 00:58:26;;;;;;;12.35;4.57;;;2.30;99.90;;;;;;5009870;28;20097;-68
2022/01/06 01:00:51;;;;;;;13.20;3.95;;;2.30;99.90;;;;;;5010211;28;20022;-67
2022/01/06 01:03:20;;;;;;;8.90;3.47;;;2.30;99.90;;;;;;5009221;28;20030;-67
2022/01/06 01:05:47;;;;;;;8.55;3.75;;;2.30;99.90;;;;;;5009841;28;20371;-68
2022/01/06 01:08:13;;;;;;;11.00;3.45;;;2.30;99.90;;;;;;5002531;28;20034;-67
2022/01/06 01:10:40;;;;;;;8.70;3.47;;;2.30;99.90;;;;;;5008825;28;20026;-68
2022/01/06 01:13:14;;;;;;;7.85;3.50;;;2.30;99.90;;;;;;5009710;28;20026;-68
2022/01/06 01:15:53;;;;;;;10.65;3.25;;;2.40;99.90;;;;;;5009927;28;20026;-67
2022/01/06 01:18:20;;;;;;;10.07;3.42;;;2.40;99.90;;;;;;5009900;28;20064;-68
2022/01/06 01:20:47;;;;;;;9.45;3.58;;;2.40;99.90;;;;;;5009553;28;20057;-68
2022/01/06 01:23:14;;;;;;;9.75;3.67;;;2.40;99.90;;;;;;5026115;28;20030;-68
2022/01/06 01:25:40;;;;;;;12.57;3.88;;;2.40;99.90;;;;;;5009602;28;20095;-68
2022/01/06 01:28:06;;;;;;;13.68;4.03;;;2.40;99.90;;;;;;5008090;28;20026;-67
2022/01/06 01:30:40;;;;;;;11.52;3.90;;;2.40;99.90;;;;;;5009812;28;20040;-67
2022/01/06 01:33:14;;;;;;;9.25;3.60;;;2.40;99.90;;;;;;5012778;28;20025;-68
2022/01/06 01:35:41;;;;;;;8.05;3.33;;;2.40;99.90;;;;;;5018450;28;20501;-67
2022/01/06 01:38:06;;;;;;;7.80;3.40;;;2.40;99.90;;;;;;5010335;28;20128;-68
2022/01/06 01:40:33;;;;;;;8.32;3.65;;;2.40;99.90;;;;;;5006033;28;20072;-68
2022/01/06 01:42:58;;;;;;;7.70;3.53;;;2.40;99.90;;;;;;5022408;28;20040;-67
2022/01/06 01:45:29;;;;;;;10.15;3.60;;;2.50;99.90;;;;;;5009496;28;20025;-68
2022/01/06 01:47:57;;;;;;;10.38;3.20;;;2.50;99.90;;;;;;5006374;28;20021;-68
2022/01/06 01:50:24;;;;;;;8.77;3.22;;;2.50;99.90;;;;;;5007544;28;20113;-68
2022/01/06 01:52:56;;;;;;;8.75;3.35;;;2.50;99.90;;;;;;5016900;28;20034;-68
2022/01/06 01:55:28;;;;;;;12.13;3.67;;;2.50;99.90;;;;;;5003865;28;20111;-68
2022/01/06 01:57:55;;;;;;;12.02;3.42;;;2.50;99.90;;;;;;5004771;28;20022;-68
2022/01/06 02:00:23;;;;;;;8.25;3.25;;;2.50;99.90;;;;;;5006289;28;20044;-67
2022/01/06 02:02:49;;;;;;;8.40;3.40;;;2.50;99.90;;;;;;5005177;28;20080;-68
2022/01/06 02:05:21;;;;;;;10.48;3.38;;;2.50;99.90;;;;;;5005212;28;20049;-68
2022/01/06 02:07:47;;;;;;;8.07;3.30;;;2.50;99.90;;;;;;5005905;28;20038;-67
2022/01/06 02:10:13;;;;;;;7.32;3.22;;;2.50;99.90;;;;;;5019799;28;20052;-67
2022/01/06 02:12:41;;;;;;;13.90;3.47;;;2.50;99.90;;;;;;5002952;28;20511;-67
2022/01/06 02:15:09;;;;;;;10.32;3.47;;;2.50;99.90;;;;;;5004275;28;20116;-68
2022/01/06 02:17:36;;;;;;;15.15;3.50;;;2.50;99.90;;;;;;5012715;28;20034;-68
2022/01/06 02:20:09;;;;;;;10.48;3.83;;;2.50;99.90;;;;;;5001801;28;20051;-67
2022/01/06 02:22:35;;;;;;;11.38;3.78;;;2.50;99.90;;;;;;4996144;28;20418;-68
2022/01/06 02:25:15;;;;;;;10.70;3.55;;;2.50;99.90;;;;;;5007758;28;20038;-68
2022/01/06 02:27:42;;;;;;;10.63;4.30;;;2.50;99.90;;;;;;5005227;28;20480;-68
2022/01/06 02:30:09;;;;;;;9.23;3.65;;;2.50;99.90;;;;;;5009074;28;20030;-68
2022/01/06 02:32:35;;;;;;;17.98;4.25;;;2.50;99.90;;;;;;5016152;28;20126;-67
2022/01/06 02:35:10;;;;;;;10.15;3.42;;;2.50;99.90;;;;;;4997636;28;20116;-67
2022/01/06 02:37:36;;;;;;;11.48;3.53;;;2.60;99.90;;;;;;5001509;28;20373;-66
2022/01/06 02:40:07;;;;;;;11.57;3.33;;;2.60;99.90;;;;;;5021774;28;20119;-67
2022/01/06 02:42:33;;;;;;;8.50;3.30;;;2.60;99.90;;;;;;5001675;28;20038;-67
2022/01/06 02:44:58;;;;;;;7.80;3.25;;;2.60;99.90;;;;;;5001437;28;20034;-67
2022/01/06 02:47:24;;;;;;;9.00;2.92;;;2.60;99.90;;;;;;5023081;28;20076;-67
2022/01/06 02:49:50;;;;;;;10.35;3.47;;;2.60;99.90;;;;;;5018761;28;20030;-67
2022/01/06 02:52:15;;;;;;;7.82;3.08;;;2.60;99.90;;;;;;5012349;28;20049;-68
2022/01/06 02:54:41;;;;;;;8.05;3.45;;;2.60;99.90;;;;;;5012674;28;20030;-69
2022/01/06 02:57:08;;;;;;;8.40;2.88;;;2.60;99.90;;;;;;5009247;28;20030;-68
2022/01/06 02:59:33;;;;;;;7.90;3.35;;;2.70;99.90;;;;;;5012363;28;20053;-68
2022/01/06 03:01:59;;;;;;;13.57;3.63;;;2.70;99.90;;;;;;5011928;28;20034;-67
2022/01/06 03:04:25;;;;;;;13.60;3.70;;;2.70;99.90;;;;;;5012146;28;20037;-67
2022/01/06 03:06:52;;;;;;;7.07;3.47;;;2.70;99.90;;;;;;5011331;28;20496;-67
2022/01/06 03:09:25;;;;;;;13.00;3.70;;;2.70;99.90;;;;;;5012212;28;20029;-68
2022/01/06 03:11:53;;;;;;;7.45;3.47;;;2.70;99.90;;;;;;5011833;28;20069;-66
2022/01/06 03:14:19;;;;;;;8.15;3.30;;;2.70;99.90;;;;;;5012145;28;20033;-67
2022/01/06 03:16:45;;;;;;;7.18;3.50;;;2.70;99.90;;;;;;5010937;28;20022;-67
2022/01/06 03:19:10;;;;;;;10.07;3.28;;;2.70;99.90;;;;;;5011971;28;20084;-69
2022/01/06 03:21:36;;;;;;;10.48;3.58;;;2.70;99.90;;;;;;5011583;28;20414;-70
2022/01/06 03:24:02;;;;;;;10.60;3.58;;;2.60;99.90;;;;;;5012051;28;20462;-70
2022/01/06 03:26:28;;;;;;;11.05;3.53;;;2.60;99.90;;;;;;5011738;28;20547;-70
2022/01/06 03:28:53;;;;;;;8.73;3.30;;;2.60;99.90;;;;;;5011392;28;20132;-70
2022/01/06 03:31:19;;;;;;;10.85;3.17;;;2.50;99.90;;;;;;5011837;28;20072;-67
2022/01/06 03:33:45;;;;;;;7.95;3.03;;;2.50;99.90;;;;;;5016348;28;20076;-67
2022/01/06 03:36:11;;;;;;;8.65;3.38;;;2.60;99.90;;;;;;5014706;28;20037;-66
2022/01/06 03:38:37;;;;;;;8.30;3.10;;;2.50;99.90;;;;;;5010397;28;20442;-66
2022/01/06 03:41:02;;;;;;;8.57;3.53;;;2.50;99.90;;;;;;5012060;28;20026;-66
2022/01/06 03:43:28;;;;;;;8.32;3.03;;;2.50;99.90;;;;;;5009830;28;20033;-66
2022/01/06 03:45:54;;;;;;;8.07;3.30;;;2.50;99.90;;;;;;5011674;28;20072;-67
2022/01/06 03:48:20;;;;;;;7.13;3.33;;;2.50;99.90;;;;;;5010881;28;20106;-67
2022/01/06 03:50:46;;;;;;;5.80;3.40;;;2.50;99.90;;;;;;5011509;28;20032;-69
2022/01/06 03:53:11;;;;;;;7.88;3.45;;;2.50;99.90;;;;;;5011357;28;20025;-68
2022/01/06 03:55:39;;;;;;;8.77;3.22;;;2.50;99.90;;;;;;5011386;28;20064;-66
2022/01/06 03:58:05;;;;;;;8.60;3.72;;;2.50;99.90;;;;;;5010298;28;20029;-66
2022/01/06 04:00:31;;;;;;;8.38;3.65;;;2.50;99.90;;;;;;5011421;28;20032;-66
2022/01/06 04:02:57;;;;;;;11.65;3.65;;;2.40;99.90;;;;;;5011052;28;20116;-68
2022/01/06 04:05:23;;;;;;;10.73;4.03;;;2.40;99.90;;;;;;5011308;28;20028;-69
2022/01/06 04:07:48;;;;;;;8.23;3.72;;;2.40;99.90;;;;;;5010608;28;20049;-66
2022/01/06 04:10:14;;;;;;;10.52;3.80;;;2.40;99.90;;;;;;5011211;28;20068;-67
2022/01/06 04:12:40;;;;;;;9.50;3.38;;;2.40;99.90;;;;;;5010086;28;20030;-66
2022/01/06 04:15:11;;;;;;;13.65;4.10;;;2.40;99.90;;;;;;5011314;28;20018;-67
2022/01/06 04:17:37;;;;;;;9.07;4.10;;;2.40;99.90;;;;;;5008629;28;20030;-66
2022/01/06 04:20:04;;;;;;;12.10;4.28;;;2.40;99.90;;;;;;5011136;28;20025;-66
2022/01/06 04:22:29;;;;;;;13.50;3.95;;;2.40;99.90;;;;;;5010515;28;20030;-66
2022/01/06 04:24:55;;;;;;;11.23;4.20;;;2.40;99.90;;;;;;5011273;28;20104;-68
2022/01/06 04:27:21;;;;;;;9.57;4.13;;;2.50;99.90;;;;;;5010028;28;20026;-68
2022/01/06 04:29:46;;;;;;;13.15;3.67;;;2.50;99.90;;;;;;5011573;28;20065;-67
2022/01/06 04:32:12;;;;;;;8.57;3.83;;;2.50;99.90;;;;;;5009913;28;20127;-67
2022/01/06 04:34:37;;;;;;;6.70;3.60;;;2.50;99.90;;;;;;5019279;28;20395;-67
2022/01/06 04:37:03;;;;;;;8.93;3.60;;;2.50;99.90;;;;;;5016122;28;20041;-67
2022/01/06 04:39:29;;;;;;;7.53;3.47;;;2.50;99.90;;;;;;5010483;28;20025;-67
2022/01/06 04:41:55;;;;;;;7.07;3.25;;;2.60;99.90;;;;;;5010588;28;20048;-66
2022/01/06 04:44:23;;;;;;;8.95;3.28;;;2.50;99.90;;;;;;5010323;28;20538;-68
2022/01/06 04:46:49;;;;;;;8.35;3.50;;;2.60;99.90;;;;;;5007875;28;20033;-67
2022/01/06 04:49:15;;;;;;;10.55;3.47;;;2.60;99.90;;;;;;5005532;28;20030;-67
2022/01/06 04:51:41;;;;;;;11.57;3.65;;;2.60;99.90;;;;;;5002553;28;20030;-66
2022/01/06 04:54:06;;;;;;;14.20;3.95;;;2.60;99.90;;;;;;5007117;28;20025;-66
2022/01/06 04:56:36;;;;;;;13.70;3.92;;;2.60;99.90;;;;;;5004249;28;20541;-67
2022/01/06 04:59:04;;;;;;;10.85;3.60;;;2.60;99.90;;;;;;5005578;28;20156;-69
2022/01/06 05:01:30;;;;;;;9.02;3.60;;;2.60;99.90;;;;;;5007179;28;20049;-70
2022/01/06 05:03:56;;;;;;;14.23;4.00;;;2.60;99.90;;;;;;5006022;28;20485;-67
2022/01/06 05:06:21;;;;;;;9.93;3.45;;;2.60;99.90;;;;;;5007385;28;20034;-66
2022/01/06 05:08:47;;;;;;;11.07;3.97;;;2.60;99.90;;;;;;5007851;28;20103;-66
2022/01/06 05:11:12;;;;;;;11.93;3.95;;;2.60;99.90;;;;;;5005156;28;20030;-65
2022/01/06 05:13:38;;;;;;;12.07;4.00;;;2.60;99.90;;;;;;4997187;28;20022;-66
2022/01/06 05:16:04;;;;;;;12.30;3.72;;;2.60;99.90;;;;;;5008587;28;20084;-66
2022/01/06 05:18:30;;;;;;;7.00;3.45;;;2.60;99.90;;;;;;5006560;28;20205;-69
2022/01/06 05:20:55;;;;;;;8.20;3.40;;;2.60;99.90;;;;;;5005546;28;20033;-65
2022/01/06 05:23:21;;;;;;;8.68;3.63;;;2.60;99.90;;;;;;5005857;28;20483;-67
2022/01/06 05:25:47;;;;;;;14.57;3.92;;;2.60;99.90;;;;;;5005256;28;20161;-71
2022/01/06 05:28:12;;;;;;;17.13;3.78;;;2.60;99.90;;;;;;5005407;28;20042;-68
2022/01/06 05:30:38;;;;;;;10.55;3.92;;;2.60;99.90;;;;;;5005253;28;20021;-68
2022/01/06 05:33:04;;;;;;;11.88;3.63;;;2.60;99.90;;;;;;5005562;28;20029;-67
2022/01/06 05:35:30;;;;;;;7.20;4.07;;;2.60;99.90;;;;;;5002436;28;20018;-67
2022/01/06 05:37:55;;;;;;;7.63;3.60;;;2.60;99.90;;;;;;5005449;28;20423;-67
2022/01/06 05:40:21;;;;;;;12.93;3.58;;;2.60;99.90;;;;;;5007172;28;20424;-69
2022/01/06 05:42:48;;;;;;;10.10;3.70;;;2.60;99.90;;;;;;5005733;28;20034;-67
2022/01/06 05:45:16;;;;;;;8.85;3.85;;;2.60;99.90;;;;;;5005298;28;20091;-69
2022/01/06 05:47:41;;;;;;;10.73;3.95;;;2.60;99.90;;;;;;5005528;28;20482;-65
2022/01/06 05:50:08;;;;;;;9.30;3.28;;;2.60;99.90;;;;;;5005546;28;20045;-69
2022/01/06 05:52:35;;;;;;;6.35;2.72;;;2.60;99.90;;;;;;5008401;28;20033;-66
2022/01/06 05:55:01;;;;;;;8.10;3.17;;;2.60;99.90;;;;;;5008825;28;20423;-68
2022/01/06 05:57:27;;;;;;;9.15;3.00;;;2.60;99.90;;;;;;5009197;28;20032;-66
2022/01/06 05:59:52;;;;;;;7.28;2.58;;;2.50;99.90;;;;;;5009749;28;20026;-66
2022/01/06 06:02:18;;;;;;;5.95;2.60;;;2.40;99.90;;;;;;5009419;28;20368;-65
2022/01/06 06:04:44;;;;;;;9.57;3.20;;;2.30;99.90;;;;;;5008963;28;20029;-66
2022/01/06 06:07:09;;;;;;;9.40;3.38;;;2.30;99.90;;;;;;5009502;28;20029;-66
2022/01/06 06:09:35;;;;;;;9.10;3.08;;;2.20;99.90;;;;;;5009681;28;20112;-65
2022/01/06 06:12:01;;;;;;;12.55;4.18;;;2.20;99.90;;;;;;5010149;28;20124;-67
2022/01/06 06:14:26;;;;;;;6.88;3.35;;;2.20;99.90;;;;;;5010143;28;20057;-67
2022/01/06 06:16:52;;;;;;;7.72;3.17;;;2.20;99.90;;;;;;5010507;28;20163;-69
2022/01/06 06:19:17;;;;;;;8.27;3.70;;;2.20;99.90;;;;;;5008934;28;20687;-69
2022/01/06 06:21:43;;;;;;;8.18;2.20;;;2.10;99.90;;;;;;5004190;28;20058;-68
2022/01/06 06:24:09;;;;;;;4.82;2.00;;;2.00;99.90;;;;;;5024326;28;20131;-68
2022/01/06 06:26:34;;;;;;;5.95;2.10;;;2.00;99.90;;;;;;5008928;28;20036;-66
2022/01/06 06:29:00;;;;;;;6.15;2.20;;;1.90;99.90;;;;;;5022784;28;20029;-66
2022/01/06 06:31:26;;;;;;;5.88;2.25;;;1.90;99.90;;;;;;5010539;28;20458;-66
2022/01/06 06:33:51;;;;;;;12.45;3.70;;;1.90;99.90;;;;;;5007847;28;20030;-69
2022/01/06 06:36:17;;;;;;;10.00;4.20;;;1.80;99.90;;;;;;5022029;22;20084;-67
2022/01/06 06:38:43;;;;;;;7.07;3.80;;;1.80;99.90;;;;;;5005125;28;20041;-69
2022/01/06 06:41:08;;;;;;;11.77;3.90;;;1.80;99.90;;;;;;5007298;28;20036;-70
2022/01/06 06:43:34;;;;;;;12.20;4.78;;;1.90;99.90;;;;;;5003039;28;20027;-69
2022/01/06 06:45:59;;;;;;;10.13;3.90;;;1.90;99.90;;;;;;4987343;28;20435;-70
2022/01/06 06:48:25;;;;;;;15.50;4.95;;;1.80;99.90;;;;;;4986688;28;20027;-69
2022/01/06 06:50:51;;;;;;;13.13;4.57;;;1.90;99.90;;;;;;5008148;28;20026;-69
2022/01/06 06:53:17;;;;;;;12.25;4.78;;;1.90;99.90;;;;;;4990950;28;20477;-69
2022/01/06 06:55:43;;;;;;;16.20;5.38;;;1.90;99.90;;;;;;4998096;28;20094;-69
2022/01/06 06:58:08;;;;;;;15.80;5.60;;;1.90;99.90;;;;;;5002391;28;20029;-67
2022/01/06 07:00:34;;;;;;;11.40;5.20;;;1.90;99.90;;;;;;4997729;28;20037;-66
2022/01/06 07:03:00;;;;;;;14.65;5.70;;;2.00;99.90;;;;;;4985272;28;20124;-67
2022/01/06 07:05:26;;;;;;;8.93;4.18;;;2.00;99.90;;;;;;4988192;28;20057;-66
2022/01/06 07:07:52;;;;;;;13.88;4.43;;;2.00;99.90;;;;;;4985725;28;20125;-67
2022/01/06 07:10:17;;;;;;;12.30;4.55;;;2.00;99.90;;;;;;5006461;28;20468;-67
2022/01/06 07:12:45;;;;;;;18.60;3.95;;;2.00;99.90;;;;;;5001211;28;20528;-67
2022/01/06 07:15:13;;;;;;;19.75;5.25;;;2.00;99.90;;;;;;5003771;28;20473;-68
2022/01/06 07:17:40;;;;;;;13.63;4.63;;;2.00;99.90;;;;;;5006508;28;20042;-69
2022/01/06 07:20:07;;;;;;;15.02;4.50;;;2.00;99.90;;;;;;4985872;28;20030;-69
2022/01/06 07:22:32;;;;;;;9.25;4.32;;;2.00;99.90;;;;;;4986327;28;20026;-69
2022/01/06 07:24:58;;;;;;;16.17;4.50;;;2.00;99.90;;;;;;4979211;28;20034;-68
2022/01/06 07:27:24;;;;;;;20.27;5.00;;;2.00;99.90;;;;;;4991170;28;20030;-69
2022/01/06 07:29:49;;;;;;;13.80;4.32;;;2.00;99.90;;;;;;5000758;28;20040;-68
2022/01/06 07:32:15;;;;;;;13.88;4.80;;;2.10;99.90;;;;;;4985362;28;20467;-69
2022/01/06 07:34:41;;;;;;;14.95;4.55;;;2.10;99.90;;;;;;4996167;28;20038;-69
2022/01/06 07:37:07;;;;;;;11.52;4.20;;;2.10;99.90;;;;;;4990438;28;20037;-70
2022/01/06 07:39:33;;;;;;;11.05;4.43;;;2.10;99.90;;;;;;4984562;28;20023;-69
2022/01/06 07:41:58;;;;;;;12.85;4.85;;;2.20;99.90;;;;;;4985559;28;20079;-70
2022/01/06 07:44:24;;;;;;;16.85;4.97;;;2.20;99.90;;;;;;4994244;28;20033;-69
2022/01/06 07:46:50;;;;;;;8.45;4.60;;;2.20;99.90;;;;;;4989913;28;20461;-69
2022/01/06 07:49:16;;;;;;;9.70;4.10;;;2.30;99.90;;;;;;5008834;28;20028;-69
2022/01/06 07:51:42;;;;;;;14.55;5.15;;;2.30;99.90;;;;;;5007757;28;20200;-68
2022/01/06 07:54:07;;;;;;;9.32;4.05;;;2.30;99.90;;;;;;5008024;28;20113;-70
2022/01/06 07:56:34;;;;;;;9.10;4.93;;;2.30;99.90;;;;;;5011354;28;20026;-70
2022/01/06 07:59:00;;;;;;;10.85;4.45;;;2.30;99.90;;;;;;5000389;28;20074;-69
2022/01/06 08:01:26;;;;;;;10.10;4.97;;;2.30;99.90;;;;;;4997256;28;20512;-69
2022/01/06 08:03:52;;;;;;;13.13;4.82;;;2.40;99.90;;;;;;5007637;28;20041;-68
2022/01/06 08:06:18;;;;;;;19.15;5.53;;;2.40;99.90;;;;;;5010538;28;20040;-70
2022/01/06 08:08:44;;;;;;;12.93;5.07;;;2.40;99.90;;;;;;5005094;28;20038;-69
2022/01/06 08:11:11;;;;;;;14.82;5.03;;;2.40;99.90;;;;;;5023159;28;20140;-69
2022/01/06 08:13:37;;;;;;;20.13;8.38;;;2.50;99.90;;;;;;4976485;28;20061;-68
2022/01/06 08:16:03;;;;;;;11.55;5.18;;;2.50;99.90;;;;;;5007627;28;20459;-69
2022/01/06 08:18:28;;;;;;;16.58;5.32;;;2.50;99.90;;;;;;4993960;28;20072;-69
2022/01/06 08:20:55;;;;;;;22.95;6.50;;;2.50;99.90;;;;;;4991625;28;20053;-69
2022/01/06 08:23:21;;;;;;;15.95;4.53;;;2.60;99.90;;;;;;5014732;28;20026;-68
2022/01/06 08:25:47;;;;;;;18.80;5.53;;;2.50;99.90;;;;;;4992159;28;20023;-67
2022/01/06 08:28:12;;;;;;;20.42;6.13;;;2.50;99.90;;;;;;5028100;28;20026;-67
2022/01/06 08:30:39;;;;;;;19.83;5.95;;;2.60;99.90;;;;;;5002989;28;20033;-70
2022/01/06 08:33:05;;;;;;;18.02;5.70;;;2.60;99.90;;;;;;4995861;28;20033;-68
2022/01/06 08:35:30;;;;;;;14.07;4.63;;;2.60;99.90;;;;;;4991219;28;20393;-68
2022/01/06 08:37:59;;;;;;;12.48;4.63;;;2.70;99.90;;;;;;5009506;28;20112;-71
2022/01/06 08:40:26;;;;;;;16.45;4.53;;;2.70;99.90;;;;;;4998431;28;20028;-68
2022/01/06 08:42:52;;;;;;;17.05;5.88;;;2.60;99.90;;;;;;5002085;28;20030;-68
2022/01/06 08:45:18;;;;;;;19.83;5.80;;;2.70;99.90;;;;;;4992181;28;20080;-68
2022/01/06 08:47:45;;;;;;;23.65;7.05;;;2.70;99.90;;;;;;4994183;28;20367;-68
2022/01/06 08:50:11;;;;;;;14.63;5.53;;;2.70;99.90;;;;;;5014224;28;20128;-70
2022/01/06 08:52:38;;;;;;;15.95;4.60;;;2.80;99.90;;;;;;5011207;28;20057;-69
2022/01/06 08:55:05;;;;;;;10.48;5.35;;;2.80;99.90;;;;;;5011077;28;20112;-69
2022/01/06 08:57:31;;;;;;;13.43;5.53;;;2.80;99.90;;;;;;4995121;28;20160;-69
2022/01/06 08:59:58;;;;;;;21.88;7.10;;;2.80;99.90;;;;;;4999594;28;20778;-69
2022/01/06 09:02:24;;;;;;;13.93;5.60;;;2.80;99.90;;;;;;5026809;28;20044;-69
2022/01/06 09:04:50;;;;;;;16.15;5.55;;;2.80;99.90;;;;;;4998548;28;20032;-69
2022/01/06 09:07:16;;;;;;;15.65;6.15;;;2.80;99.90;;;;;;5004155;28;20104;-69
2022/01/06 09:09:42;;;;;;;16.00;7.13;;;2.90;99.90;;;;;;4993588;28;20521;-69
2022/01/06 09:12:08;;;;;;;19.48;8.13;;;2.80;99.90;;;;;;4984341;28;20046;-69
2022/01/06 09:14:35;;;;;;;21.27;7.15;;;2.90;99.90;;;;;;4986314;28;20022;-70
2022/01/06 09:17:00;;;;;;;20.60;9.13;;;2.90;99.90;;;;;;5008854;28;20044;-69
2022/01/06 09:19:26;;;;;;;16.77;6.43;;;2.90;99.90;;;;;;4993179;28;20022;-69
2022/01/06 09:21:52;;;;;;;15.25;5.72;;;2.90;99.90;;;;;;4984133;28;20026;-70
2022/01/06 09:24:19;;;;;;;16.35;5.85;;;2.90;99.90;;;;;;5008065;28;20112;-73
2022/01/06 09:26:45;;;;;;;16.05;5.65;;;2.90;99.90;;;;;;4975591;28;20455;-69
2022/01/06 09:29:13;;;;;;;15.63;5.80;;;2.90;99.90;;;;;;4990700;28;20068;-67
2022/01/06 09:31:41;;;;;;;20.60;5.13;;;2.80;99.90;;;;;;4992345;28;20084;-69
2022/01/06 09:34:08;;;;;;;12.05;5.50;;;2.90;99.90;;;;;;4989332;28;20030;-68
2022/01/06 09:36:34;;;;;;;13.73;5.55;;;2.90;99.90;;;;;;4994067;28;20076;-68
2022/01/06 09:39:01;;;;;;;13.75;5.15;;;2.90;99.90;;;;;;4994429;28;20030;-69
2022/01/06 09:41:27;;;;;;;13.88;5.00;;;3.00;99.90;;;;;;5010569;28;20021;-69
2022/01/06 09:43:54;;;;;;;8.60;5.10;;;3.00;99.90;;;;;;4995251;28;20034;-69
2022/01/06 09:46:21;;;;;;;11.68;6.85;;;3.00;99.90;;;;;;5010495;28;20089;-69
2022/01/06 09:48:47;;;;;;;12.00;5.45;;;3.10;99.90;;;;;;4996378;28;20132;-69
2022/01/06 09:51:14;;;;;;;13.38;5.22;;;3.20;99.90;;;;;;5009768;28;20533;-69
2022/01/06 09:53:40;;;;;;;14.48;4.88;;;3.20;99.90;;;;;;4998154;28;20083;-68
2022/01/06 09:56:07;;;;;;;12.95;4.00;;;3.20;99.90;;;;;;4983919;28;20109;-69
2022/01/06 09:58:33;;;;;;;16.02;4.00;;;3.20;99.90;;;;;;5013131;28;20030;-69
2022/01/06 10:00:59;;;;;;;12.98;4.20;;;3.30;99.90;;;;;;5009395;28;20030;-70
2022/01/06 10:03:36;;;;;;;16.60;4.95;;;3.30;99.90;;;;;;4991937;28;20029;-70
2022/01/06 10:06:17;;;;;;;10.60;4.43;;;3.30;99.90;;;;;;4993247;28;20022;-69
2022/01/06 10:08:50;;;;;;;12.40;4.88;;;3.20;99.90;;;;;;5001354;28;20022;-68
2022/01/06 10:11:19;;;;;;;12.00;4.85;;;3.30;99.90;;;;;;4995798;28;20125;-68
2022/01/06 10:13:58;;;;;;;17.25;5.03;;;3.30;99.90;;;;;;4988000;28;20038;-67
2022/01/06 10:16:26;;;;;;;6.18;4.90;;;3.20;99.90;;;;;;5001593;28;20496;-68
2022/01/06 10:18:54;;;;;;;11.88;3.83;;;3.20;99.90;;;;;;4992663;28;20030;-66
2022/01/06 10:21:20;;;;;;;11.70;4.07;;;3.20;99.90;;;;;;5007026;28;20030;-66
2022/01/06 10:23:58;;;;;;;10.07;4.03;;;3.20;99.90;;;;;;4985388;28;20033;-67
2022/01/06 10:26:23;;;;;;;11.20;4.38;;;3.20;99.90;;;;;;4984213;28;20113;-67
2022/01/06 10:28:51;;;;;;;16.35;4.63;;;3.20;99.90;;;;;;4984271;28;21976;-67
2022/01/06 10:31:18;;;;;;;9.65;4.40;;;3.20;99.90;;;;;;4985577;28;20029;-68
2022/01/06 10:33:44;;;;;;;8.95;3.97;;;3.20;99.90;;;;;;5006654;28;20459;-69
2022/01/06 10:36:10;;;;;;;13.02;4.05;;;3.20;99.90;;;;;;5004186;28;20026;-69
2022/01/06 10:38:37;;;;;;;11.73;4.03;;;3.20;99.90;;;;;;5004327;28;20372;-68
2022/01/06 10:41:13;;;;;;;9.00;4.57;;;3.20;99.90;;;;;;4984080;28;20026;-66
2022/01/06 10:43:39;;;;;;;11.00;5.15;;;3.20;99.90;;;;;;5003946;28;20510;-67
2022/01/06 10:46:05;;;;;;;8.45;4.60;;;3.20;99.90;;;;;;4992355;28;20026;-67
2022/01/06 10:48:31;;;;;;;21.38;6.57;;;3.20;99.90;;;;;;5008568;28;20067;-68
2022/01/06 10:50:58;;;;;;;18.08;5.55;;;3.20;99.90;;;;;;4988947;28;20491;-70
2022/01/06 10:53:24;;;;;;;13.85;5.03;;;3.20;99.90;;;;;;4992145;28;20031;-67
2022/01/06 10:55:49;;;;;;;13.40;5.43;;;3.30;99.90;;;;;;4982788;28;20048;-67
2022/01/06 10:58:25;;;;;;;14.25;5.95;;;3.30;99.90;;;;;;5005113;28;20123;-71
2022/01/06 11:01:02;;;;;;;15.57;5.03;;;3.30;99.90;;;;;;4986246;28;20034;-67
2022/01/06 11:03:33;;;;;;;14.50;5.95;;;3.30;99.90;;;;;;4998534;28;20022;-67
2022/01/06 11:06:01;;;;;;;18.42;6.05;;;3.30;99.90;;;;;;5020228;28;20120;-67
2022/01/06 11:08:32;;;;;;;9.38;5.28;;;3.40;99.90;;;;;;5003426;28;20502;-67
2022/01/06 11:11:16;;;;;;;14.20;5.00;;;3.50;99.90;;;;;;5013126;28;20026;-67
2022/01/06 11:13:42;;;;;;;14.05;4.80;;;3.50;99.90;;;;;;4988014;28;20049;-67
2022/01/06 11:16:12;;;;;;;12.00;5.22;;;3.50;99.90;;;;;;4983756;28;20026;-67
2022/01/06 11:18:47;;;;;;;9.05;4.32;;;3.50;99.90;;;;;;5006562;28;20026;-67
2022/01/06 11:21:16;;;;;;;14.43;4.25;;;3.50;99.90;;;;;;5016672;28;20034;-67
2022/01/06 11:23:42;;;;;;;14.95;4.80;;;3.60;99.90;;;;;;5020269;28;20698;-67
2022/01/06 11:26:16;;;;;;;10.68;4.47;;;3.60;99.90;;;;;;5012994;28;20032;-67
2022/01/06 11:28:54;;;;;;;11.10;4.80;;;3.70;99.90;;;;;;5012805;28;20049;-68
2022/01/06 11:31:22;;;;;;;14.45;4.90;;;3.70;99.90;;;;;;4986158;28;20121;-68
2022/01/06 11:33:50;;;;;;;11.70;4.47;;;3.70;99.90;;;;;;5029104;28;20128;-68
2022/01/06 11:36:30;;;;;;;14.73;4.18;;;3.70;99.90;;;;;;5008220;28;20030;-68
2022/01/06 11:38:57;;;;;;;11.35;5.13;;;3.80;99.90;;;;;;4987912;28;20564;-68
2022/01/06 11:41:41;;;;;;;11.43;4.35;;;3.80;99.90;;;;;;4993556;28;20124;-69
2022/01/06 11:44:20;;;;;;;13.68;4.65;;;3.80;99.90;;;;;;5012552;28;20033;-69
2022/01/06 11:46:50;;;;;;;8.95;4.30;;;3.90;99.90;;;;;;4993371;28;20026;-69
2022/01/06 11:49:38;;;;;;;11.18;3.97;;;3.80;99.90;;;;;;5009219;28;20087;-70
2022/01/06 11:52:12;;;;;;;9.70;4.32;;;3.80;99.90;;;;;;4993651;28;20037;-69
2022/01/06 11:54:55;;;;;;;10.18;4.28;;;3.80;99.90;;;;;;4991285;28;20026;-69
2022/01/06 11:57:26;;;;;;;;;;;3.80;99.90;;;;;;5007627;28;20026;-69
2022/01/06 11:59:52;;;;;;;14.18;4.57;;;3.80;99.90;;;;;;4993592;28;19921;-69
2022/01/06 12:02:22;;;;;;;18.98;4.68;;;3.90;99.90;;;;;;4994874;28;20112;-69
2022/01/06 12:04:59;;;;;;;14.27;4.63;;;4.00;99.90;;;;;;4993823;28;20045;-68
2022/01/06 12:07:26;;;;;;;17.42;4.57;;;4.20;99.90;;;;;;5012286;28;20022;-70
2022/01/06 12:09:57;;;;;;;13.88;4.60;;;4.30;99.90;;;;;;4997525;28;20582;-68
2022/01/06 12:12:35;;;;;;;10.55;4.63;;;4.60;99.90;;;;;;5011901;28;20124;-69
2022/01/06 12:15:06;;;;;;;14.25;4.53;;;4.70;99.90;;;;;;4993679;28;20045;-69
2022/01/06 12:17:32;;;;;;;14.30;3.47;;;4.80;99.90;;;;;;5006330;28;20491;-68
2022/01/06 12:19:58;;;;;;;13.02;4.25;;;4.80;99.90;;;;;;4993979;28;20076;-68
2022/01/06 12:22:26;;;;;;;9.75;3.55;;;4.90;99.90;;;;;;5013279;28;20030;-69
2022/01/06 12:25:06;;;;;;;8.80;3.70;;;5.10;99.90;;;;;;4991807;28;20022;-68
2022/01/06 12:27:32;;;;;;;16.05;7.50;;;5.30;99.90;;;;;;4985269;28;20033;-68
2022/01/06 12:30:03;;;;;;;8.27;3.65;;;5.30;99.90;;;;;;4989711;28;20021;-69
2022/01/06 12:32:29;;;;;;;11.52;3.80;;;5.30;99.90;;;;;;4997154;28;20030;-68
2022/01/06 12:34:56;;;;;;;10.48;4.35;;;5.10;99.90;;;;;;4988757;28;20063;-68
2022/01/06 12:37:30;;;;;;;11.25;3.40;;;5.10;99.90;;;;;;4998663;28;20030;-69
2022/01/06 12:39:56;;;;;;;11.48;2.88;;;5.00;99.90;;;;;;4995689;28;20123;-68
2022/01/06 12:42:23;;;;;;;10.10;3.33;;;4.90;99.90;;;;;;4995290;28;20034;-68
2022/01/06 12:44:49;;;;;;;8.18;3.35;;;4.80;99.90;;;;;;5010514;28;20022;-68
2022/01/06 12:47:15;;;;;;;12.85;7.28;;;4.80;99.90;;;;;;4994353;28;20033;-68
2022/01/06 12:49:41;;;;;;;11.10;3.92;;;4.70;99.90;;;;;;5011130;28;20018;-68
2022/01/06 12:52:07;;;;;;;12.70;4.20;;;4.70;99.90;;;;;;5010933;28;20072;-68
2022/01/06 12:54:35;;;;;;;11.10;3.70;;;4.70;99.90;;;;;;4994423;28;20034;-68
2022/01/06 12:57:02;;;;;;;14.82;4.82;;;4.80;99.90;;;;;;5010834;28;20105;-68